Etusivu
METAR-TAF:

METAR-TAF

Lentoasemat :

Torino, Italia

Leveyspiiri: 45-13N, Pituuspiiri: 007-39E, korkeus merenpinnasta: 301 m

Tämänhetkinen sää

Tämä raportti tehtiin 23 minuuttia sitten, kello 13.50 UTC
Tuuli 5 kn koillisesta, vaihdellen luoteen ja idän/kaakon välillä
Lämpötila 12°C
Kosteus 71%
Ilmanpaine 1014 hPa
Näkyvyys 10 km tai enemmän
Hajanaisia pilviä 3000 ft:n korkeudessa
Hajonneita pilviä 9000 ft:n korkeudessa

METAR: LIMF 301350Z 05005KT 310V110 9999 SCT030 BKN090 12/07 Q1014

Aika: 16:13 (14:13 UTC)

Sääennuste

Tämä raportti tehtiin 3 tuntia ja 13 minuuttia sitten, kello 11.00 UTC
Ennuste voimassa 30. päivästä klo 12 UTC - 31. päivään klo 12 UTC
Tuuli 8 kn pohjoisesta/koillisesta
Näkyvyys: 8000 m
Hajonneita pilviä 3000 ft:n korkeudessa
Ajoittain
30. päivästä klo 18 UTC - 30. päivään klo 24 UTC
sadetta

TAF: LIMF 301100Z 3012/3112 03008KT 8000 BKN030 TEMPO 3018/3024 RA

Säähavainnot ja -ennusteet yli 4000 lentoasemalta (METAR- ja TAF-raportit).

Käytössä olevat sääasemat on merkitty karttaan keltaisilla ja punaisilla pisteillä.

Aseta hiiri pisteen päälle nähdäksesi sääaseman nimen.

Klikkaa sitten nähdäksesi säähavainnot ja -ennusteet.

Kartan vaihtaminen: klikkaa mustalla rastilla varustettuja vihreitä pisteitä, niin voit zoomata sisään; viivalla varustettua vihreää pistettä, niin voit zoomata ulos tai vihreitä nuolia, niin pääset viereisille kartoille.


METAR-TAF: